Crossville Memorial Whitson Field Crossville US
ICAO: KCSV
IATA: CSV
Category: Medium
Scheduled Services: No

Elevation: 1881 ft
TransAlt. 18000 ft.

Airport Communications:
ASOS:120.625
ATLANTA CNTR:133.6
NASHVILLE RDO:122.2
CTAF/UNICOM:122.7

KCSV Zoom In..

Runways:

(A) RW 08 length 5418 ft width 100 ft
---- / hdg 75

(B) RW 26 length 5418 ft width 100 ft
ILS 109.10 / hdg 255

Location; KCSV
Day. 21 / Time. 06.06 Zulu
* Altimeter: 30.01
* Temperature: 19° c. 66.2°f.
* Wind from: 340° Speed 26 kn with Gusts up to 38 kn.
Dewpoint: 17° c.
Visibility: 7 Statute Miles.
Clouds: Few 800 ft.
Clouds: Scattered 1900 ft.
Clouds: Overcast 3400 ft.

KCSV 210606Z AUTO 34026G38KT 7SM -TSRA FEW008 SCT019 OVC034 19/17 A3001 RMK AO2 PK WND 36038/0605 LTG DSNT ALQDS RAB06 PRESRR P0001 T01890172


Wind From 340°
Speed 26 kn.

 
 
jpsmedia.com for Web Design worldairports.se 2018   terms of use